Time;durP1;ratioP1;P1;durP2;ratioP2;P2;SDS_P1;SDS_P2;PMS_P1;PMS_P2;Temp;Humidity;BMP_temperature;BMP_pressure;BME280_temperature;BME280_humidity;BME280_pressure;Samples;Min_cycle;Max_cycle;Signal;HPM_P1;HPM_P2
2021/11/09 00:00:16;;;;;;;0.40;0.20;;;2.70;99.90;;;;;;5089594;28;20483;-71
2021/11/09 00:02:44;;;;;;;0.40;0.20;;;2.70;99.90;;;;;;5085693;28;20925;-70
2021/11/09 00:05:13;;;;;;;0.40;0.30;;;2.80;99.90;;;;;;5078177;28;20386;-70
2021/11/09 00:10:10;;;;;;;0.40;0.20;;;2.80;99.90;;;;;;5090604;28;20493;-70
2021/11/09 00:12:51;;;;;;;0.40;0.20;;;2.80;99.90;;;;;;5091055;28;20414;-70
2021/11/09 00:15:20;;;;;;;0.40;0.22;;;2.80;99.90;;;;;;5090444;28;20374;-70
2021/11/09 00:17:48;;;;;;;0.40;0.20;;;2.80;99.90;;;;;;5090983;28;20751;-70
2021/11/09 00:20:18;;;;;;;0.40;0.20;;;2.70;99.90;;;;;;5090289;28;20485;-69
2021/11/09 00:22:44;;;;;;;0.40;0.20;;;2.70;99.90;;;;;;5090804;28;20385;-70
2021/11/09 00:25:11;;;;;;;0.40;0.20;;;2.60;99.90;;;;;;5090200;28;20810;-71
2021/11/09 00:27:36;;;;;;;0.40;0.20;;;2.50;99.90;;;;;;5090937;28;20382;-70
2021/11/09 00:30:04;;;;;;;0.40;0.20;;;2.50;99.90;;;;;;5090764;28;20388;-69
2021/11/09 00:32:30;;;;;;;0.50;0.50;;;2.50;99.90;;;;;;5089892;28;20416;-70
2021/11/09 00:34:55;;;;;;;0.40;0.30;;;2.50;99.90;;;;;;5090706;28;20382;-69
2021/11/09 00:37:21;;;;;;;0.40;0.30;;;2.50;99.90;;;;;;5089687;28;20383;-70
2021/11/09 00:39:47;;;;;;;0.40;0.20;;;2.50;99.90;;;;;;5090571;28;20739;-70
2021/11/09 00:42:14;;;;;;;0.40;0.20;;;2.50;99.90;;;;;;5089955;28;20451;-70
2021/11/09 00:44:40;;;;;;;0.40;0.20;;;2.50;99.90;;;;;;5090893;28;20761;-70
2021/11/09 00:47:06;;;;;;;0.40;0.20;;;2.40;99.90;;;;;;5090563;28;20443;-69
2021/11/09 00:49:33;;;;;;;0.40;0.20;;;2.50;99.90;;;;;;5089633;28;20401;-69
2021/11/09 00:52:00;;;;;;;0.40;0.20;;;2.50;99.90;;;;;;5090603;28;20422;-69
2021/11/09 00:54:25;;;;;;;0.45;0.45;;;2.50;99.90;;;;;;5090091;28;20393;-72
2021/11/09 00:56:51;;;;;;;0.40;0.30;;;2.60;99.90;;;;;;5090539;28;20711;-70
2021/11/09 00:59:17;;;;;;;0.40;0.20;;;2.60;99.90;;;;;;5089989;28;20416;-70
2021/11/09 01:01:43;;;;;;;0.40;0.20;;;2.50;99.90;;;;;;5108103;28;20408;-71
2021/11/09 01:04:10;;;;;;;1.30;1.20;;;2.30;99.90;;;;;;5090207;28;20471;-68
2021/11/09 01:06:36;;;;;;;0.40;0.20;;;2.40;99.90;;;;;;5089856;28;20378;-69
2021/11/09 01:09:03;;;;;;;0.40;0.40;;;2.30;99.90;;;;;;5090059;28;20378;-69
2021/11/09 01:11:28;;;;;;;0.40;0.20;;;2.30;99.90;;;;;;5089562;28;20468;-69
2021/11/09 01:13:54;;;;;;;0.40;0.22;;;2.20;99.90;;;;;;5090271;28;20386;-69
2021/11/09 01:16:20;;;;;;;0.40;0.28;;;2.10;99.90;;;;;;5089595;28;20461;-69
2021/11/09 01:18:53;;;;;;;0.40;0.20;;;2.30;99.90;;;;;;5090380;28;20378;-69
2021/11/09 01:21:20;;;;;;;0.40;0.20;;;2.20;99.90;;;;;;5089706;28;20769;-69
2021/11/09 01:23:49;;;;;;;0.40;0.20;;;2.30;99.90;;;;;;5090119;28;20763;-69
2021/11/09 01:26:16;;;;;;;0.40;0.20;;;2.20;99.90;;;;;;5089464;28;20386;-69
2021/11/09 01:28:45;;;;;;;0.47;0.40;;;2.20;99.90;;;;;;5090215;28;20381;-69
2021/11/09 01:31:12;;;;;;;0.40;0.20;;;2.30;99.90;;;;;;5090107;28;20723;-70
2021/11/09 01:33:38;;;;;;;0.40;0.20;;;2.20;99.90;;;;;;5090162;28;20382;-69
2021/11/09 01:36:05;;;;;;;0.40;0.30;;;2.30;99.90;;;;;;5090067;28;20382;-69
2021/11/09 01:38:32;;;;;;;0.40;0.20;;;2.20;99.90;;;;;;5089300;28;20381;-69
2021/11/09 01:40:58;;;;;;;0.40;0.20;;;2.20;99.90;;;;;;5090125;28;20385;-69
2021/11/09 01:43:25;;;;;;;0.40;0.20;;;2.10;99.90;;;;;;5089295;28;20374;-69
2021/11/09 01:45:51;;;;;;;0.40;0.20;;;2.20;99.90;;;;;;5090219;28;20851;-69
2021/11/09 01:48:18;;;;;;;0.40;0.20;;;2.10;99.90;;;;;;5088954;28;20424;-70
2021/11/09 01:50:49;;;;;;;0.40;0.20;;;2.20;99.90;;;;;;5090012;28;20443;-69
2021/11/09 01:53:15;;;;;;;0.40;0.20;;;2.20;99.90;;;;;;5089266;28;20552;-70
2021/11/09 01:55:41;;;;;;;0.40;0.20;;;2.20;99.90;;;;;;5088823;28;20757;-69
2021/11/09 01:58:08;;;;;;;0.40;0.27;;;2.20;99.90;;;;;;5090266;28;20439;-69
2021/11/09 02:00:44;;;;;;;0.40;0.20;;;2.00;99.90;;;;;;5089218;28;20370;-69
2021/11/09 02:03:11;;;;;;;0.40;0.20;;;2.00;99.90;;;;;;5089626;28;20410;-69
2021/11/09 02:05:37;;;;;;;0.40;0.20;;;2.10;99.90;;;;;;5089161;28;20402;-69
2021/11/09 02:08:03;;;;;;;0.40;0.20;;;2.20;99.90;;;;;;5089552;28;20417;-69
2021/11/09 02:10:32;;;;;;;0.40;0.20;;;2.10;99.90;;;;;;5089348;28;20953;-69
2021/11/09 02:12:58;;;;;;;0.40;0.20;;;2.10;99.90;;;;;;5089512;28;20816;-69
2021/11/09 02:15:25;;;;;;;0.40;0.20;;;2.10;99.90;;;;;;5090148;28;20413;-69
2021/11/09 02:17:51;;;;;;;0.60;0.60;;;1.90;99.90;;;;;;5093660;28;20386;-69
2021/11/09 02:20:19;;;;;;;0.40;0.25;;;2.00;99.90;;;;;;5092886;28;20378;-70
2021/11/09 02:22:45;;;;;;;0.40;0.20;;;2.10;99.90;;;;;;5093120;28;20390;-69
2021/11/09 02:25:15;;;;;;;0.40;0.20;;;2.00;99.90;;;;;;5093375;28;20378;-69
2021/11/09 02:27:42;;;;;;;0.40;0.30;;;2.00;99.90;;;;;;5093138;28;20422;-69
2021/11/09 02:30:11;;;;;;;0.40;0.20;;;1.90;99.90;;;;;;5093290;28;20389;-69
2021/11/09 02:32:37;;;;;;;0.40;0.20;;;2.00;99.90;;;;;;5092398;28;20428;-69
2021/11/09 02:35:04;;;;;;;0.40;0.30;;;1.90;99.90;;;;;;5093051;28;20524;-69
2021/11/09 02:37:30;;;;;;;0.40;0.20;;;1.90;99.90;;;;;;5092178;28;20419;-69
2021/11/09 02:39:57;;;;;;;0.40;0.20;;;1.90;99.90;;;;;;5092614;28;20466;-69
2021/11/09 02:42:24;;;;;;;0.40;0.30;;;2.10;99.90;;;;;;5091926;28;20882;-69
2021/11/09 02:44:50;;;;;;;0.40;0.20;;;1.90;99.90;;;;;;5092924;28;20719;-69
2021/11/09 02:47:16;;;;;;;0.40;0.30;;;2.00;99.90;;;;;;5092663;28;20374;-70
2021/11/09 02:49:55;;;;;;;0.40;0.20;;;2.00;99.90;;;;;;5107543;28;20385;-69
2021/11/09 02:52:22;;;;;;;0.40;0.20;;;2.10;99.90;;;;;;5112407;28;20757;-69
2021/11/09 02:54:50;;;;;;;0.40;0.20;;;2.10;99.90;;;;;;5113164;28;20388;-69
2021/11/09 02:57:27;;;;;;;0.40;0.25;;;2.10;99.90;;;;;;5112869;28;20384;-69
2021/11/09 03:00:01;;;;;;;0.40;0.20;;;2.20;99.90;;;;;;5102373;28;20890;-70
2021/11/09 03:12:22;;;;;;;0.40;0.20;;;2.10;99.90;;;;;;5071429;28;20486;-70
2021/11/09 03:14:49;;;;;;;0.40;0.20;;;2.00;99.90;;;;;;5072405;28;20775;-69
2021/11/09 03:17:21;;;;;;;0.40;0.20;;;2.00;99.90;;;;;;5072055;28;20538;-69
2021/11/09 03:19:54;;;;;;;0.40;0.20;;;2.00;99.90;;;;;;5071947;28;20455;-69
2021/11/09 03:46:59;;;;;;;0.40;0.20;;;2.90;99.90;;;;;;5073557;28;20800;-69
2021/11/09 03:49:28;;;;;;;0.40;0.20;;;2.70;99.90;;;;;;5090899;28;20457;-69
2021/11/09 03:51:55;;;;;;;0.40;0.20;;;2.90;99.90;;;;;;5091910;28;20417;-69
2021/11/09 03:54:27;;;;;;;0.70;0.50;;;2.80;99.90;;;;;;5091107;28;20431;-71
2021/11/09 03:57:06;;;;;;;0.40;0.20;;;2.70;99.90;;;;;;5091712;28;20387;-69
2021/11/09 04:02:16;;;;;;;0.40;0.20;;;2.80;99.90;;;;;;5091157;28;20587;-69
2021/11/09 04:04:55;;;;;;;0.40;0.20;;;2.80;99.90;;;;;;5090495;28;20717;-69
2021/11/09 04:12:47;;;;;;;0.40;0.20;;;2.70;99.90;;;;;;5090226;28;20887;-69
2021/11/09 04:28:34;;;;;;;0.40;0.20;;;2.70;99.90;;;;;;5091029;28;20389;-69
2021/11/09 05:10:45;;;;;;;0.40;0.30;;;2.40;99.90;;;;;;5069651;28;20438;-69
2021/11/09 05:13:11;;;;;;;0.40;0.20;;;2.50;99.90;;;;;;5070258;28;20791;-69
2021/11/09 05:15:36;;;;;;;0.40;0.30;;;2.40;99.90;;;;;;5069276;28;20434;-69
2021/11/09 05:18:02;;;;;;;0.40;0.20;;;2.40;99.90;;;;;;5070225;28;20811;-69
2021/11/09 05:20:30;;;;;;;0.40;0.20;;;2.20;99.90;;;;;;5069465;28;20470;-70
2021/11/09 05:22:56;;;;;;;0.40;0.25;;;2.20;99.90;;;;;;5070171;28;20388;-69
2021/11/09 05:25:23;;;;;;;0.40;0.22;;;2.30;99.90;;;;;;5069961;28;20773;-69
2021/11/09 05:27:49;;;;;;;0.40;0.20;;;2.30;99.90;;;;;;5069761;28;20921;-69
2021/11/09 05:30:16;;;;;;;0.40;0.20;;;2.30;99.90;;;;;;5068803;28;20383;-69
2021/11/09 05:32:42;;;;;;;0.40;0.20;;;2.50;99.90;;;;;;5069300;28;20460;-69
2021/11/09 05:35:09;;;;;;;0.40;0.30;;;2.40;99.90;;;;;;5070018;28;20417;-69
2021/11/09 05:37:40;;;;;;;0.40;0.30;;;2.40;99.90;;;;;;5069128;28;20440;-69
2021/11/09 05:40:07;;;;;;;0.40;0.20;;;2.40;99.90;;;;;;5069428;28;20376;-69
2021/11/09 05:42:33;;;;;;;0.40;0.20;;;2.50;99.90;;;;;;5096799;28;20533;-69
2021/11/09 05:44:59;;;;;;;0.40;0.20;;;2.60;99.90;;;;;;5099376;28;20387;-69
2021/11/09 05:47:25;;;;;;;0.40;0.20;;;2.60;99.90;;;;;;5094787;28;20392;-70
2021/11/09 05:49:51;;;;;;;0.40;0.40;;;2.50;99.90;;;;;;5104747;28;20510;-69
2021/11/09 05:52:17;;;;;;;0.40;0.30;;;2.60;99.90;;;;;;5113536;28;20415;-70
2021/11/09 05:54:43;;;;;;;0.40;0.30;;;2.70;99.90;;;;;;5102765;28;20484;-70
2021/11/09 05:57:09;;;;;;;0.40;0.30;;;2.60;99.90;;;;;;5105938;28;20387;-69
2021/11/09 05:59:35;;;;;;;0.40;0.20;;;2.60;99.90;;;;;;5105356;28;20373;-70
2021/11/09 06:02:01;;;;;;;0.53;0.43;;;2.40;99.90;;;;;;5098356;28;20390;-70
2021/11/09 06:04:27;;;;;;;0.40;0.20;;;2.40;99.90;;;;;;5110116;28;20379;-70
2021/11/09 06:06:53;;;;;;;0.40;0.20;;;2.50;99.90;;;;;;5099855;28;20368;-69
2021/11/09 06:09:19;;;;;;;0.40;0.20;;;2.50;99.90;;;;;;5103950;28;20378;-69
2021/11/09 06:11:45;;;;;;;0.40;0.25;;;2.60;99.90;;;;;;5106289;28;20487;-69
2021/11/09 06:14:10;;;;;;;0.40;0.20;;;2.60;99.90;;;;;;5097037;28;20842;-69
2021/11/09 06:16:36;;;;;;;0.50;0.50;;;2.40;99.90;;;;;;5109147;28;20384;-70
2021/11/09 06:19:04;;;;;;;0.40;0.40;;;2.30;99.90;;;;;;5101189;28;20740;-69
2021/11/09 06:21:30;;;;;;;0.40;0.20;;;2.30;99.90;;;;;;5099529;28;20795;-70
2021/11/09 06:23:55;;;;;;;0.40;0.30;;;2.20;99.90;;;;;;5101836;28;20424;-69
2021/11/09 06:26:22;;;;;;;0.40;0.20;;;2.20;99.90;;;;;;5092296;28;20800;-69
2021/11/09 06:28:48;;;;;;;0.68;0.68;;;2.10;99.90;;;;;;5086345;28;20384;-69
2021/11/09 06:31:14;;;;;;;0.40;0.30;;;2.20;99.90;;;;;;5086207;28;20390;-69
2021/11/09 06:33:40;;;;;;;0.40;0.30;;;2.40;99.90;;;;;;5101881;28;20393;-69
2021/11/09 06:36:06;;;;;;;0.40;0.20;;;2.40;99.90;;;;;;5097855;28;20383;-69
2021/11/09 06:38:32;;;;;;;0.40;0.20;;;2.40;99.90;;;;;;5101422;28;20441;-68
2021/11/09 06:40:58;;;;;;;0.40;0.30;;;2.50;99.90;;;;;;5095727;28;20476;-69
2021/11/09 06:43:24;;;;;;;0.40;0.40;;;2.50;99.90;;;;;;5097428;28;20473;-69
2021/11/09 06:45:52;;;;;;;0.40;0.30;;;2.40;99.90;;;;;;5095250;28;20435;-68
2021/11/09 06:48:18;;;;;;;0.40;0.20;;;2.20;99.90;;;;;;5102063;28;20402;-69
2021/11/09 06:50:44;;;;;;;0.40;0.20;;;2.40;99.90;;;;;;5105172;28;20968;-69
2021/11/09 06:53:10;;;;;;;0.40;0.30;;;2.60;99.90;;;;;;5100438;28;20461;-68
2021/11/09 06:55:37;;;;;;;0.40;0.30;;;2.50;99.90;;;;;;5098745;28;20428;-68
2021/11/09 06:58:03;;;;;;;0.50;0.40;;;2.50;99.90;;;;;;5098562;28;20417;-69
2021/11/09 07:00:52;;;;;;;0.70;0.70;;;2.50;99.90;;;;;;5109120;28;20870;-69
2021/11/09 07:03:19;;;;;;;0.40;0.20;;;2.30;99.90;;;;;;5085254;28;20894;-69
2021/11/09 07:05:46;;;;;;;0.40;0.20;;;2.40;99.90;;;;;;5100810;28;20381;-68
2021/11/09 07:08:12;;;;;;;0.40;0.20;;;2.30;99.90;;;;;;5108563;28;20415;-69
2021/11/09 07:10:37;;;;;;;0.40;0.20;;;2.40;99.90;;;;;;5100720;28;20416;-69
2021/11/09 07:13:03;;;;;;;0.40;0.20;;;2.40;99.90;;;;;;5104954;28;20425;-69
2021/11/09 07:15:29;;;;;;;0.40;0.20;;;2.40;99.90;;;;;;5097235;28;20388;-69
2021/11/09 07:17:55;;;;;;;0.80;0.80;;;2.10;99.90;;;;;;5103212;28;20391;-69
2021/11/09 07:20:21;;;;;;;0.40;0.35;;;2.10;99.90;;;;;;5102585;28;20435;-68
2021/11/09 07:22:48;;;;;;;0.40;0.30;;;2.10;99.90;;;;;;5094655;28;20382;-69
2021/11/09 07:25:15;;;;;;;0.40;0.20;;;2.10;99.90;;;;;;5098569;27;20412;-69
2021/11/09 07:27:41;;;;;;;0.40;0.20;;;1.90;99.90;;;;;;5092798;28;20420;-69
2021/11/09 07:30:10;;;;;;;0.40;0.20;;;2.20;99.90;;;;;;5096775;28;20451;-69
2021/11/09 07:32:37;;;;;;;0.40;0.20;;;2.30;99.90;;;;;;5092004;28;20551;-69
2021/11/09 07:35:04;;;;;;;0.40;0.30;;;2.20;99.90;;;;;;5096649;28;20369;-70
2021/11/09 07:37:30;;;;;;;0.60;0.40;;;2.10;99.90;;;;;;5087804;28;20382;-69
2021/11/09 07:39:56;;;;;;;0.40;0.20;;;2.20;99.90;;;;;;5079413;28;20386;-70
2021/11/09 07:42:22;;;;;;;0.40;0.30;;;2.10;99.90;;;;;;5076087;28;20393;-70
2021/11/09 07:44:48;;;;;;;0.40;0.20;;;2.30;99.90;;;;;;5077210;28;20394;-70
2021/11/09 07:47:14;;;;;;;0.40;0.20;;;2.20;99.90;;;;;;5075281;28;20469;-69
2021/11/09 07:49:41;;;;;;;0.40;0.20;;;2.10;99.90;;;;;;5077299;28;20404;-70
2021/11/09 07:52:10;;;;;;;0.40;0.30;;;2.20;99.90;;;;;;5078654;28;20418;-70
2021/11/09 07:54:37;;;;;;;1.27;1.17;;;2.20;99.90;;;;;;5079299;28;21026;-69
2021/11/09 07:57:11;;;;;;;0.40;0.22;;;2.10;99.90;;;;;;5088703;28;20870;-69
2021/11/09 07:59:51;;;;;;;1.80;0.90;;;2.00;99.90;;;;;;5087559;28;20783;-69
2021/11/09 08:04:57;;;;;;;0.40;0.20;;;2.30;99.90;;;;;;5088282;28;20450;-69
2021/11/09 08:07:27;;;;;;;0.40;0.30;;;2.20;99.90;;;;;;5089307;28;20477;-69
2021/11/09 08:09:53;;;;;;;0.40;0.20;;;2.30;99.90;;;;;;5085780;28;20374;-70
2021/11/09 08:12:18;;;;;;;0.40;0.30;;;2.10;99.90;;;;;;5087255;28;20812;-68
2021/11/09 08:14:44;;;;;;;0.40;0.30;;;2.40;99.90;;;;;;5087016;28;20382;-69
2021/11/09 08:17:10;;;;;;;0.40;0.20;;;2.40;99.90;;;;;;5085736;28;20473;-70
2021/11/09 08:19:36;;;;;;;0.40;0.20;;;2.50;99.90;;;;;;5088195;28;20476;-70
2021/11/09 08:22:03;;;;;;;0.40;0.40;;;2.60;99.90;;;;;;5088681;28;20397;-69
2021/11/09 08:24:32;;;;;;;0.60;0.60;;;2.70;99.90;;;;;;5090691;28;20390;-69
2021/11/09 08:26:58;;;;;;;0.60;0.60;;;2.50;99.90;;;;;;5091404;28;20393;-68
2021/11/09 08:29:28;;;;;;;0.40;0.20;;;2.60;99.90;;;;;;5089296;28;20881;-68
2021/11/09 08:31:56;;;;;;;0.40;0.20;;;2.80;99.90;;;;;;5089579;28;20546;-68
2021/11/09 08:34:22;;;;;;;0.40;0.30;;;2.60;99.90;;;;;;5089824;28;20786;-69
2021/11/09 08:36:49;;;;;;;0.40;0.30;;;2.70;99.90;;;;;;5089591;28;20374;-69
2021/11/09 08:39:23;;;;;;;0.40;0.20;;;2.80;99.90;;;;;;5090227;28;20853;-70
2021/11/09 08:44:22;;;;;;;0.40;0.30;;;2.60;99.90;;;;;;5091087;28;20420;-68
2021/11/09 08:46:51;;;;;;;0.40;0.20;;;2.50;99.90;;;;;;5089896;28;20471;-68
2021/11/09 08:49:22;;;;;;;1.10;1.00;;;2.50;99.90;;;;;;5090182;28;20378;-69
2021/11/09 08:51:54;;;;;;;0.40;0.40;;;2.50;99.90;;;;;;5089878;28;20480;-69
2021/11/09 08:54:23;;;;;;;0.40;0.30;;;2.60;99.90;;;;;;5090387;28;20533;-69
2021/11/09 09:04:59;;;;;;;0.40;0.20;;;3.00;99.90;;;;;;5089705;28;20421;-70
2021/11/09 09:07:27;;;;;;;0.50;0.50;;;3.30;99.90;;;;;;5090519;28;20377;-69
2021/11/09 09:09:54;;;;;;;0.50;0.40;;;3.20;99.90;;;;;;5089818;28;20855;-69
2021/11/09 09:12:21;;;;;;;0.40;0.20;;;3.10;99.90;;;;;;5090215;28;20448;-69
2021/11/09 09:14:47;;;;;;;0.40;0.25;;;3.20;99.90;;;;;;5089795;28;20382;-69
2021/11/09 09:17:13;;;;;;;0.60;0.60;;;3.00;99.90;;;;;;5090382;28;20712;-69
2021/11/09 09:19:47;;;;;;;0.40;0.20;;;3.00;99.90;;;;;;5088417;28;20382;-70
2021/11/09 09:22:17;;;;;;;1.00;0.90;;;3.10;99.90;;;;;;5090178;28;20447;-69
2021/11/09 09:27:18;;;;;;;0.40;0.30;;;3.10;99.90;;;;;;5094245;28;20404;-68
2021/11/09 09:56:54;;;;;;;0.40;0.20;;;4.10;99.90;;;;;;5093178;28;20405;-68
2021/11/09 09:59:22;;;;;;;0.40;0.20;;;3.80;99.90;;;;;;5093863;28;20422;-68
2021/11/09 10:02:10;;;;;;;0.40;0.30;;;3.70;99.90;;;;;;5093042;28;20370;-68
2021/11/09 10:04:40;;;;;;;0.50;0.50;;;3.90;99.90;;;;;;5093648;28;20769;-68
2021/11/09 10:07:06;;;;;;;0.40;0.20;;;3.90;99.90;;;;;;5093535;28;20422;-67
2021/11/09 10:09:42;;;;;;;1.00;0.70;;;3.60;99.90;;;;;;5093548;28;20389;-67
2021/11/09 10:12:16;;;;;;;0.40;0.30;;;3.60;99.90;;;;;;5093716;28;20431;-68
2021/11/09 10:14:47;;;;;;;0.40;0.20;;;3.80;99.90;;;;;;5092909;28;20405;-68
2021/11/09 10:17:27;;;;;;;0.40;0.20;;;3.60;99.90;;;;;;5092397;28;20957;-67
2021/11/09 10:19:58;;;;;;;0.40;0.20;;;3.70;99.90;;;;;;5092785;28;20377;-69
2021/11/09 10:22:35;;;;;;;0.40;0.20;;;3.90;99.90;;;;;;5093523;28;20397;-69
2021/11/09 10:25:12;;;;;;;0.40;0.20;;;4.20;99.90;;;;;;5092512;28;21039;-69
2021/11/09 10:27:39;;;;;;;0.40;0.40;;;4.20;99.90;;;;;;5093268;28;20731;-68
2021/11/09 10:30:11;;;;;;;0.40;0.20;;;4.10;99.90;;;;;;5093015;28;20427;-68
2021/11/09 10:32:37;;;;;;;0.40;0.20;;;4.40;99.90;;;;;;5093280;28;20949;-68
2021/11/09 10:35:05;;;;;;;0.40;0.20;;;4.40;99.90;;;;;;5092439;28;20412;-68
2021/11/09 10:37:34;;;;;;;0.40;0.20;;;4.40;99.90;;;;;;5092472;28;20389;-68
2021/11/09 10:40:26;;;;;;;0.80;0.60;;;4.40;99.90;;;;;;5092055;28;20473;-68
2021/11/09 10:42:55;;;;;;;0.40;0.30;;;4.50;99.90;;;;;;5081206;28;20477;-68
2021/11/09 10:45:24;;;;;;;0.40;0.30;;;4.60;99.90;;;;;;5093011;28;20405;-67
2021/11/09 10:47:55;;;;;;;0.40;0.27;;;4.80;99.90;;;;;;5092277;28;20378;-68
2021/11/09 10:50:51;;;;;;;0.50;0.50;;;4.90;99.90;;;;;;5092794;28;20402;-68
2021/11/09 10:56:08;;;;;;;0.40;0.20;;;5.10;99.90;;;;;;5092100;28;20378;-68
2021/11/09 11:06:19;;;;;;;0.40;0.30;;;6.80;99.90;;;;;;5092025;28;20988;-68
2021/11/09 11:08:47;;;;;;;0.40;0.20;;;7.50;99.90;;;;;;5091697;28;20469;-68
2021/11/09 11:11:52;;;;;;;0.40;0.20;;;8.60;99.90;;;;;;5092610;28;20381;-68
2021/11/09 11:14:24;;;;;;;0.40;0.20;;;7.90;99.90;;;;;;5091879;28;20398;-68
2021/11/09 11:16:55;;;;;;;0.40;0.20;;;8.50;99.90;;;;;;5091689;28;20382;-68
2021/11/09 11:19:31;;;;;;;0.40;0.30;;;8.40;99.90;;;;;;5092093;28;20465;-68
2021/11/09 11:22:05;;;;;;;0.40;0.20;;;9.00;99.90;;;;;;5091439;28;20781;-68
2021/11/09 11:24:31;;;;;;;0.40;0.20;;;9.50;98.90;;;;;;5091803;28;20492;-68
2021/11/09 11:26:59;;;;;;;0.40;0.20;;;9.00;97.80;;;;;;5091449;28;20478;-69
2021/11/09 11:29:28;;;;;;;0.40;0.20;;;9.90;97.30;;;;;;5091973;28;20465;-68
2021/11/09 11:31:55;;;;;;;0.40;0.20;;;10.30;95.70;;;;;;5090918;28;20406;-69
2021/11/09 11:34:22;;;;;;;0.43;0.35;;;10.20;94.50;;;;;;5091881;28;20792;-68
2021/11/09 11:36:49;;;;;;;0.40;0.30;;;9.00;98.10;;;;;;5091076;28;20432;-69
2021/11/09 11:39:17;;;;;;;0.40;0.23;;;9.90;97.80;;;;;;5092069;28;20374;-69
2021/11/09 11:41:46;;;;;;;0.40;0.30;;;10.40;95.60;;;;;;5091963;28;20378;-68
2021/11/09 11:44:22;;;;;;;0.40;0.20;;;10.10;94.30;;;;;;5091658;28;20370;-69
2021/11/09 11:46:51;;;;;;;0.40;0.20;;;10.40;95.70;;;;;;5091111;28;20389;-71
2021/11/09 11:49:29;;;;;;;0.40;0.30;;;10.60;96.20;;;;;;5091835;28;20382;-68
2021/11/09 11:51:54;;;;;;;0.40;0.20;;;11.60;93.70;;;;;;5090335;28;20458;-69
2021/11/09 11:54:55;;;;;;;0.60;0.60;;;10.60;92.80;;;;;;5091321;28;20393;-70
2021/11/09 11:57:45;;;;;;;0.40;0.30;;;11.10;92.00;;;;;;5090315;28;20932;-68
2021/11/09 12:00:30;;;;;;;0.40;0.30;;;11.10;92.20;;;;;;5091183;28;20389;-69
2021/11/09 12:03:02;;;;;;;0.40;0.30;;;12.30;90.90;;;;;;5090978;28;20440;-69
2021/11/09 12:05:42;;;;;;;0.40;0.30;;;12.50;90.10;;;;;;5091581;28;20384;-69
2021/11/09 12:08:16;;;;;;;0.40;0.20;;;12.10;91.10;;;;;;5090574;28;20373;-68
2021/11/09 12:10:49;;;;;;;0.40;0.20;;;11.10;91.50;;;;;;5091446;28;20465;-69
2021/11/09 12:13:20;;;;;;;0.40;0.20;;;12.20;90.80;;;;;;5091519;28;20490;-68
2021/11/09 12:15:52;;;;;;;0.40;0.20;;;11.60;90.20;;;;;;5090714;28;20739;-69
2021/11/09 12:18:37;;;;;;;0.40;0.40;;;11.50;91.10;;;;;;5091250;28;20382;-69
2021/11/09 12:21:30;;;;;;;0.70;0.60;;;11.30;92.80;;;;;;5090418;28;20738;-68
2021/11/09 12:24:09;;;;;;;0.40;0.20;;;11.40;93.10;;;;;;5081071;28;20413;-69
2021/11/09 12:26:58;;;;;;;0.40;0.20;;;11.10;92.70;;;;;;5090909;28;20893;-69
2021/11/09 12:29:37;;;;;;;0.40;0.30;;;10.40;95.00;;;;;;5091074;28;20382;-68
2021/11/09 12:32:21;;;;;;;0.40;0.30;;;9.90;97.20;;;;;;5089764;28;20410;-68
2021/11/09 12:35:11;;;;;;;0.40;0.20;;;10.20;96.40;;;;;;5089244;28;20477;-69
2021/11/09 12:37:45;;;;;;;0.40;0.30;;;10.60;96.10;;;;;;5090933;28;20798;-68
2021/11/09 12:40:37;;;;;;;0.40;0.28;;;10.50;96.60;;;;;;5089659;28;20536;-68
2021/11/09 12:43:13;;;;;;;0.40;0.40;;;10.00;97.20;;;;;;5090015;28;20444;-68
2021/11/09 12:45:43;;;;;;;0.40;0.20;;;9.70;98.30;;;;;;5090769;28;20388;-68
2021/11/09 12:48:16;;;;;;;0.40;0.30;;;9.20;99.80;;;;;;5089882;28;20374;-68
2021/11/09 12:50:49;;;;;;;0.50;0.50;;;8.80;99.90;;;;;;5090508;28;20401;-68
2021/11/09 12:53:19;;;;;;;0.40;0.20;;;8.90;99.90;;;;;;5090214;28;20518;-68
2021/11/09 12:55:58;;;;;;;0.40;0.20;;;9.20;99.90;;;;;;5091032;28;20457;-68
2021/11/09 12:58:25;;;;;;;0.60;0.60;;;9.80;99.90;;;;;;5090603;28;20390;-68
2021/11/09 13:04:01;;;;;;;0.40;0.20;;;10.00;98.90;;;;;;5090701;28;20743;-67
2021/11/09 13:09:27;;;;;;;0.80;0.50;;;10.00;99.90;;;;;;5082977;28;20920;-68
2021/11/09 13:11:59;;;;;;;0.40;0.20;;;10.30;99.00;;;;;;5089866;28;20428;-69
2021/11/09 13:14:55;;;;;;;0.40;0.30;;;10.20;99.00;;;;;;5090582;28;20448;-68
2021/11/09 13:17:36;;;;;;;0.40;0.20;;;10.70;98.70;;;;;;5088930;28;20382;-68
2021/11/09 13:20:13;;;;;;;0.47;0.47;;;10.40;97.30;;;;;;5089318;28;20867;-68
2021/11/09 13:22:53;;;;;;;0.40;0.30;;;10.30;97.30;;;;;;5090624;28;20862;-67
2021/11/09 13:25:26;;;;;;;0.40;0.30;;;10.20;98.40;;;;;;5090474;28;20401;-68
2021/11/09 13:27:52;;;;;;;0.40;0.30;;;10.90;98.20;;;;;;5089789;28;20389;-69
2021/11/09 13:30:25;;;;;;;0.40;0.30;;;10.50;98.60;;;;;;5090196;28;20382;-68
2021/11/09 13:32:56;;;;;;;0.40;0.20;;;10.90;97.40;;;;;;5090213;28;20414;-69
2021/11/09 13:35:27;;;;;;;0.50;0.40;;;10.80;97.60;;;;;;5090361;28;20451;-68
2021/11/09 13:38:10;;;;;;;0.40;0.30;;;10.80;97.90;;;;;;5090083;28;20382;-70
2021/11/09 13:40:42;;;;;;;0.40;0.30;;;11.50;98.10;;;;;;5088875;28;20390;-68
2021/11/09 13:43:10;;;;;;;0.40;0.20;;;12.10;95.90;;;;;;5088248;28;20390;-68
2021/11/09 13:45:38;;;;;;;0.40;0.22;;;11.50;95.80;;;;;;5090014;28;20383;-70
2021/11/09 13:48:20;;;;;;;0.40;0.40;;;11.30;96.20;;;;;;5089330;28;20378;-69
2021/11/09 13:50:48;;;;;;;0.60;0.40;;;11.70;95.40;;;;;;5089873;28;20731;-69
2021/11/09 13:53:25;;;;;;;0.60;0.60;;;11.40;94.90;;;;;;5087606;28;20510;-69
2021/11/09 13:55:52;;;;;;;0.80;0.50;;;12.00;94.90;;;;;;5089886;28;20461;-70
2021/11/09 13:58:18;;;;;;;0.40;0.30;;;11.20;95.30;;;;;;5089975;28;20381;-69
2021/11/09 14:00:49;;;;;;;0.40;0.20;;;11.10;95.80;;;;;;5090101;28;20444;-69
2021/11/09 14:16:39;;;;;;;1.10;0.90;;;10.40;98.10;;;;;;5093656;28;20794;-68
2021/11/09 14:19:11;;;;;;;0.70;0.40;;;10.40;98.40;;;;;;5091218;28;20390;-68
2021/11/09 14:21:45;;;;;;;0.40;0.20;;;10.30;98.90;;;;;;5093543;28;20459;-68
2021/11/09 14:24:18;;;;;;;0.45;0.30;;;10.20;99.40;;;;;;5092404;28;20447;-68
2021/11/09 14:26:49;;;;;;;0.40;0.20;;;9.80;99.90;;;;;;5093470;28;20417;-69
2021/11/09 14:29:23;;;;;;;0.40;0.30;;;9.80;99.90;;;;;;5092789;28;20366;-69
2021/11/09 14:32:14;;;;;;;0.50;0.40;;;9.70;99.90;;;;;;5092958;28;20406;-69
2021/11/09 14:34:53;;;;;;;0.40;0.20;;;9.60;99.90;;;;;;5092990;28;20420;-70
2021/11/09 14:37:25;;;;;;;0.40;0.20;;;9.70;99.90;;;;;;5092218;28;20475;-70
2021/11/09 14:40:05;;;;;;;0.40;0.20;;;9.60;99.90;;;;;;5093317;28;20519;-69
2021/11/09 14:45:27;;;;;;;0.40;0.30;;;9.50;99.90;;;;;;5092423;28;20386;-69
2021/11/09 14:48:04;;;;;;;2.00;0.80;;;9.40;99.90;;;;;;5093036;28;20368;-70
2021/11/09 14:53:04;;;;;;;1.30;1.20;;;9.30;99.90;;;;;;5091923;28;20829;-70
2021/11/09 14:55:48;;;;;;;0.40;0.40;;;9.20;99.90;;;;;;5092858;28;20386;-69
2021/11/09 14:58:38;;;;;;;0.40;0.30;;;9.30;99.90;;;;;;5091986;28;20385;-70
2021/11/09 15:01:24;;;;;;;0.90;0.60;;;9.30;99.90;;;;;;5091932;28;20378;-70
2021/11/09 15:03:59;;;;;;;0.40;0.30;;;9.40;99.90;;;;;;5092445;28;20823;-70
2021/11/09 15:06:50;;;;;;;0.40;0.20;;;9.40;99.90;;;;;;5091318;28;20390;-70
2021/11/09 15:30:24;;;;;;;0.40;0.30;;;8.40;99.90;;;;;;5090273;28;20386;-70
2021/11/09 15:32:51;;;;;;;0.40;0.30;;;8.40;99.90;;;;;;5091891;28;20406;-69
2021/11/09 15:35:36;;;;;;;0.40;0.20;;;8.30;99.90;;;;;;5089922;28;20401;-70
2021/11/09 15:38:02;;;;;;;1.83;0.93;;;8.40;99.90;;;;;;5086865;28;20378;-72
2021/11/09 15:40:28;;;;;;;0.40;0.30;;;8.20;99.90;;;;;;5088331;28;20472;-70
2021/11/09 15:42:53;;;;;;;0.40;0.20;;;8.20;99.90;;;;;;5090416;28;20382;-70
2021/11/09 15:45:19;;;;;;;0.40;0.28;;;8.20;99.90;;;;;;5089972;28;20382;-71
2021/11/09 15:47:45;;;;;;;0.40;0.30;;;7.90;99.90;;;;;;5090342;28;20926;-70
2021/11/09 15:50:12;;;;;;;0.40;0.30;;;8.00;99.90;;;;;;5089562;28;20416;-71
2021/11/09 15:52:39;;;;;;;0.40;0.20;;;8.10;99.90;;;;;;5090463;28;20417;-70
2021/11/09 15:55:06;;;;;;;0.80;0.70;;;8.10;99.90;;;;;;5089853;28;20382;-70
2021/11/09 15:57:32;;;;;;;0.50;0.40;;;7.70;99.90;;;;;;5089825;28;20937;-70
2021/11/09 16:00:00;;;;;;;0.60;0.60;;;7.40;99.90;;;;;;5090610;28;20389;-71
2021/11/09 16:02:25;;;;;;;0.40;0.20;;;7.30;99.90;;;;;;5089740;28;20393;-71
2021/11/09 16:04:53;;;;;;;0.40;0.30;;;7.20;99.90;;;;;;5090064;28;20785;-71
2021/11/09 16:07:22;;;;;;;0.57;0.57;;;6.90;99.90;;;;;;5089391;28;20720;-71
2021/11/09 16:09:50;;;;;;;0.40;0.38;;;6.90;99.90;;;;;;5086170;28;20871;-70
2021/11/09 16:12:20;;;;;;;0.43;0.28;;;6.80;99.90;;;;;;5089243;28;20863;-71
2021/11/09 16:14:47;;;;;;;0.40;0.20;;;6.50;99.90;;;;;;5090747;28;20437;-71
2021/11/09 16:17:13;;;;;;;0.40;0.20;;;6.40;99.90;;;;;;5088998;28;20801;-70
2021/11/09 16:19:40;;;;;;;0.40;0.20;;;6.40;99.90;;;;;;5090573;28;20382;-71
2021/11/09 16:22:09;;;;;;;0.40;0.20;;;6.50;99.90;;;;;;5089199;28;20430;-70
2021/11/09 16:24:35;;;;;;;0.40;0.20;;;6.50;99.90;;;;;;5090291;28;20401;-70
2021/11/09 16:27:01;;;;;;;0.40;0.20;;;6.30;99.90;;;;;;5089091;28;20937;-69